Time;durP1;ratioP1;P1;durP2;ratioP2;P2;SDS_P1;SDS_P2;PMS_P1;PMS_P2;Temp;Humidity;BMP_temperature;BMP_pressure;BME280_temperature;BME280_humidity;BME280_pressure;Samples;Min_cycle;Max_cycle;Signal;HPM_P1;HPM_P2
2021/12/05 00:24:15;;;;;;;0.25;0.20;;;3.00;99.90;;;;;;4927626;29;20469;-78
2021/12/05 00:26:48;;;;;;;8.70;0.80;;;3.00;99.90;;;;;;4895158;29;20471;-78
2021/12/05 00:42:30;;;;;;;2.47;0.13;;;3.00;99.90;;;;;;4952596;29;20043;-79
2021/12/05 00:47:58;;;;;;;0.10;0.10;;;2.60;99.90;;;;;;4949180;29;20023;-79
2021/12/05 01:17:27;;;;;;;0.10;0.10;;;2.70;99.90;;;;;;4930299;29;20113;-78
2021/12/05 01:19:54;;;;;;;1.67;1.42;;;2.70;99.90;;;;;;4912609;29;20079;-78
2021/12/05 01:22:22;;;;;;;0.98;0.32;;;2.70;99.90;;;;;;4912573;29;20032;-78
2021/12/05 01:25:06;;;;;;;0.68;0.10;;;2.70;99.90;;;;;;4912693;29;20038;-78
2021/12/05 01:27:41;;;;;;;4.95;0.38;;;2.80;99.90;;;;;;4929719;29;20028;-79
2021/12/05 01:30:24;;;;;;;0.10;0.10;;;2.80;99.90;;;;;;4912256;29;20039;-78
2021/12/05 01:33:10;;;;;;;0.30;0.30;;;2.80;99.90;;;;;;4912609;29;20111;-78
2021/12/05 01:36:29;;;;;;;0.10;0.10;;;2.90;99.90;;;;;;4917317;29;20023;-78
2021/12/05 01:38:45;;;;;;;0.10;0.10;;;2.90;99.90;;;;;;4938423;28;20043;-78
2021/12/05 01:49:43;;;;;;;3.95;0.68;;;3.00;99.90;;;;;;4929235;29;20111;-78
2021/12/05 02:11:22;;;;;;;0.20;0.20;;;2.90;99.90;;;;;;4934262;29;20019;-78
2021/12/05 02:36:22;;;;;;;3.08;0.38;;;3.10;99.90;;;;;;4932744;29;20028;-78
2021/12/05 02:43:16;;;;;;;0.10;0.10;;;3.00;99.90;;;;;;4938802;29;20046;-78
2021/12/05 02:45:47;;;;;;;0.22;0.10;;;2.90;99.90;;;;;;4920257;29;20194;-79
2021/12/05 02:48:15;;;;;;;0.30;0.20;;;2.90;99.90;;;;;;4906268;29;20038;-79
2021/12/05 02:50:43;;;;;;;0.10;0.10;;;2.80;99.90;;;;;;4905184;29;20079;-79
2021/12/05 02:53:19;;;;;;;3.20;0.52;;;2.70;99.90;;;;;;4920946;29;20388;-78
2021/12/05 02:55:47;;;;;;;0.90;0.30;;;2.70;99.90;;;;;;4921388;29;20040;-79
2021/12/05 03:01:10;;;;;;;1.02;0.20;;;2.60;99.90;;;;;;4939178;29;20123;-79
2021/12/05 03:03:42;;;;;;;;;;;2.60;99.90;;;;;;4938163;29;20031;-79
2021/12/05 03:06:16;;;;;;;0.20;0.20;;;2.60;99.90;;;;;;4939328;29;19907;-79
2021/12/05 03:08:44;;;;;;;0.10;0.10;;;2.50;99.90;;;;;;4922617;29;20086;-79
2021/12/05 03:11:10;;;;;;;0.50;0.50;;;2.40;99.90;;;;;;4921845;29;20035;-79
2021/12/05 03:13:40;;;;;;;1.98;0.45;;;2.30;99.90;;;;;;4938473;29;20024;-79
2021/12/05 03:16:08;;;;;;;0.40;0.40;;;2.20;99.90;;;;;;4921253;29;20030;-79
2021/12/05 03:18:34;;;;;;;0.10;0.10;;;2.10;99.90;;;;;;4921538;29;20039;-79
2021/12/05 03:21:01;;;;;;;1.23;1.13;;;2.00;99.90;;;;;;4938162;29;20023;-79
2021/12/05 03:23:27;;;;;;;0.47;0.47;;;1.80;99.90;;;;;;4920771;29;20067;-79
2021/12/05 03:25:55;;;;;;;1.10;0.38;;;1.70;99.90;;;;;;4920756;29;20035;-78
2021/12/05 03:28:21;;;;;;;0.10;0.10;;;1.70;99.90;;;;;;4938450;29;20019;-79
2021/12/05 03:30:46;;;;;;;0.13;0.13;;;1.70;99.90;;;;;;4920440;29;20083;-79
2021/12/05 03:33:12;;;;;;;0.10;0.10;;;1.90;99.90;;;;;;4920428;29;20043;-79
2021/12/05 03:35:38;;;;;;;0.10;0.10;;;2.20;99.90;;;;;;4938000;29;20052;-79
2021/12/05 03:38:04;;;;;;;0.10;0.10;;;2.30;99.90;;;;;;4920920;29;20027;-79
2021/12/05 03:40:33;;;;;;;3.20;0.22;;;2.40;99.90;;;;;;4920183;29;20027;-79
2021/12/05 03:43:04;;;;;;;0.10;0.10;;;2.30;99.90;;;;;;4920439;29;20027;-78
2021/12/05 03:45:34;;;;;;;0.30;0.20;;;2.30;99.90;;;;;;4920132;29;20043;-79
2021/12/05 03:48:00;;;;;;;1.20;0.20;;;2.30;99.90;;;;;;4904125;29;20064;-79
2021/12/05 03:50:27;;;;;;;0.10;0.10;;;2.30;99.90;;;;;;4920618;29;20352;-80
2021/12/05 03:52:53;;;;;;;0.70;0.30;;;2.30;99.90;;;;;;4921112;29;20020;-79
2021/12/05 03:55:20;;;;;;;0.30;0.30;;;2.30;99.90;;;;;;4920712;29;20026;-79
2021/12/05 03:57:46;;;;;;;1.20;0.20;;;2.30;99.90;;;;;;4920222;29;20120;-79
2021/12/05 04:00:25;;;;;;;0.90;0.20;;;2.30;99.90;;;;;;4919954;29;20523;-79
2021/12/05 04:02:52;;;;;;;;;;;2.30;99.90;;;;;;4919701;29;20118;-79
2021/12/05 04:05:18;;;;;;;10.27;0.52;;;2.30;99.90;;;;;;4919862;29;20282;-79
2021/12/05 04:07:44;;;;;;;8.30;0.90;;;2.30;99.90;;;;;;4920081;29;20059;-79
2021/12/05 04:10:11;;;;;;;0.10;0.10;;;2.20;99.90;;;;;;4920226;29;20039;-79
2021/12/05 04:12:37;;;;;;;0.20;0.20;;;2.10;99.90;;;;;;4937114;29;20150;-79
2021/12/05 04:15:04;;;;;;;0.25;0.20;;;2.10;99.90;;;;;;4919803;29;20482;-79
2021/12/05 04:17:31;;;;;;;7.03;0.40;;;2.10;99.90;;;;;;4937352;29;20469;-79
2021/12/05 04:19:57;;;;;;;0.03;0.03;;;2.10;99.90;;;;;;4920307;29;20028;-79
2021/12/05 04:22:23;;;;;;;0.05;0.05;;;2.00;99.90;;;;;;4919840;29;20024;-79
2021/12/05 04:24:49;;;;;;;0.30;0.30;;;2.10;99.90;;;;;;4919366;29;20076;-79
2021/12/05 04:27:15;;;;;;;0.10;0.10;;;2.00;99.90;;;;;;4919632;29;20026;-79
2021/12/05 04:29:41;;;;;;;0.10;0.10;;;1.90;99.90;;;;;;4919281;29;20074;-80
2021/12/05 04:32:07;;;;;;;0.68;0.40;;;1.80;99.90;;;;;;4919648;29;20385;-80
2021/12/05 04:34:33;;;;;;;0.10;0.10;;;1.80;99.90;;;;;;4920411;29;20461;-80
2021/12/05 04:36:59;;;;;;;0.25;0.25;;;1.80;99.90;;;;;;4920542;29;20127;-80
2021/12/05 04:39:26;;;;;;;0.15;0.15;;;1.70;99.90;;;;;;4919868;29;20465;-80
2021/12/05 04:41:54;;;;;;;0.25;0.25;;;1.70;99.90;;;;;;4937347;29;20027;-79
2021/12/05 04:44:22;;;;;;;0.20;0.20;;;1.70;99.90;;;;;;4920460;29;20437;-80
2021/12/05 04:46:48;;;;;;;2.05;1.15;;;1.70;99.90;;;;;;4919129;29;20511;-79
2021/12/05 04:49:14;;;;;;;0.15;0.15;;;1.90;99.90;;;;;;4919525;29;20059;-80
2021/12/05 04:51:43;;;;;;;0.25;0.25;;;2.00;99.90;;;;;;4919468;29;20038;-79
2021/12/05 04:54:16;;;;;;;0.10;0.10;;;2.10;99.90;;;;;;4919640;29;20032;-79
2021/12/05 04:56:44;;;;;;;0.00;0.00;;;2.20;99.90;;;;;;4919664;29;20031;-80
2021/12/05 04:59:14;;;;;;;0.57;0.57;;;2.20;99.90;;;;;;4921411;29;20055;-79
2021/12/05 05:01:47;;;;;;;0.65;0.38;;;2.30;99.90;;;;;;4924377;29;20023;-79
2021/12/05 05:04:26;;;;;;;3.80;0.63;;;2.30;99.90;;;;;;4924496;29;20082;-79
2021/12/05 05:06:57;;;;;;;0.03;0.03;;;2.20;99.90;;;;;;4919423;29;20125;-79
2021/12/05 05:09:23;;;;;;;0.10;0.10;;;2.20;99.90;;;;;;4919802;29;20043;-79
2021/12/05 05:11:48;;;;;;;0.13;0.13;;;2.10;99.90;;;;;;4936640;29;20024;-79
2021/12/05 05:14:14;;;;;;;2.85;0.98;;;2.00;99.90;;;;;;4919109;29;20531;-80
2021/12/05 05:16:41;;;;;;;0.10;0.10;;;1.90;99.90;;;;;;4919263;29;20032;-80
2021/12/05 05:19:08;;;;;;;0.30;0.30;;;1.80;99.90;;;;;;4936482;29;20082;-80
2021/12/05 05:21:47;;;;;;;0.00;0.00;;;1.90;99.90;;;;;;4919254;29;20020;-78
2021/12/05 05:41:51;;;;;;;0.05;0.05;;;1.20;99.90;;;;;;4940420;29;20067;-80
2021/12/05 05:43:37;;;;;;;0.20;0.20;;;1.20;99.90;;;;;;4932934;29;20110;-79
2021/12/05 05:49:09;;;;;;;0.10;0.10;;;1.30;99.90;;;;;;4939655;29;20030;-79
2021/12/05 05:51:22;;;;;;;0.10;0.10;;;1.40;99.90;;;;;;4938376;29;20044;-80
2021/12/05 05:53:48;;;;;;;0.10;0.10;;;1.30;99.90;;;;;;4922556;29;20024;-80
2021/12/05 05:56:19;;;;;;;0.40;0.40;;;1.40;99.90;;;;;;4922490;29;20058;-80
2021/12/05 05:58:53;;;;;;;0.30;0.30;;;1.50;99.90;;;;;;4922213;29;20024;-80
2021/12/05 06:01:40;;;;;;;0.90;0.43;;;1.50;99.90;;;;;;4920967;29;20028;-80
2021/12/05 06:04:07;;;;;;;0.10;0.10;;;1.60;99.90;;;;;;4921836;29;20032;-80
2021/12/05 06:06:33;;;;;;;0.15;0.10;;;1.70;99.90;;;;;;4923702;29;20028;-79
2021/12/05 06:09:19;;;;;;;0.10;0.10;;;1.70;99.90;;;;;;4939596;29;20034;-80
2021/12/05 06:11:44;;;;;;;0.20;0.20;;;1.80;99.90;;;;;;4940451;29;20027;-80
2021/12/05 06:14:10;;;;;;;0.65;0.65;;;1.80;99.90;;;;;;4922810;29;20030;-79
2021/12/05 06:16:36;;;;;;;0.75;0.17;;;1.80;99.90;;;;;;4923636;29;20392;-79
2021/12/05 06:19:01;;;;;;;0.00;0.00;;;1.80;99.90;;;;;;4923241;29;20026;-79
2021/12/05 06:21:27;;;;;;;0.10;0.10;;;1.90;99.90;;;;;;4922528;29;20327;-79
2021/12/05 06:23:53;;;;;;;0.22;0.20;;;1.80;99.90;;;;;;4921814;29;20099;-79
2021/12/05 06:26:23;;;;;;;0.20;0.20;;;1.80;99.90;;;;;;4939448;29;20370;-79
2021/12/05 06:29:12;;;;;;;0.22;0.22;;;1.70;99.90;;;;;;4940821;29;20023;-79
2021/12/05 06:32:05;;;;;;;;;;;1.50;99.90;;;;;;4923985;29;20035;-79
2021/12/05 06:47:53;;;;;;;0.10;0.10;;;1.40;99.90;;;;;;4939003;29;20027;-79
2021/12/05 06:50:19;;;;;;;0.20;0.20;;;1.40;99.90;;;;;;4937878;29;20048;-79
2021/12/05 06:52:45;;;;;;;0.10;0.10;;;1.70;99.90;;;;;;4923193;29;20027;-79
2021/12/05 06:55:14;;;;;;;0.10;0.10;;;1.40;99.90;;;;;;4922264;29;20028;-79
2021/12/05 06:57:40;;;;;;;0.10;0.10;;;1.90;99.90;;;;;;4921102;29;20024;-79
2021/12/05 07:00:15;;;;;;;0.10;0.10;;;1.50;99.90;;;;;;4921696;29;20060;-80
2021/12/05 07:02:45;;;;;;;0.10;0.10;;;1.50;99.90;;;;;;4922079;29;20047;-80
2021/12/05 07:05:38;;;;;;;0.10;0.10;;;1.40;99.90;;;;;;4934890;28;20044;-83
2021/12/05 07:07:56;;;;;;;0.10;0.10;;;1.40;99.90;;;;;;4959834;29;20044;-83
2021/12/05 07:10:24;;;;;;;0.20;0.20;;;1.40;99.90;;;;;;4940470;29;20020;-84
2021/12/05 07:15:29;;;;;;;0.00;0.00;;;-0.30;99.90;;;;;;4960084;29;20058;-84
2021/12/05 07:21:05;;;;;;;0.30;0.30;;;1.30;99.90;;;;;;4953181;29;19918;-84
2021/12/05 07:23:46;;;;;;;0.68;0.20;;;-0.10;99.90;;;;;;4938968;29;20032;-85
2021/12/05 07:26:46;;;;;;;0.00;0.00;;;1.30;99.90;;;;;;4939599;29;20079;-84
2021/12/05 07:40:28;;;;;;;0.05;0.05;;;1.70;99.90;;;;;;4953294;29;20026;-83
2021/12/05 07:42:57;;;;;;;0.20;0.20;;;1.70;99.90;;;;;;4953947;29;20024;-82
2021/12/05 07:45:48;;;;;;;0.40;0.40;;;1.90;99.90;;;;;;4939495;29;20043;-83
2021/12/05 07:48:20;;;;;;;2.67;1.02;;;2.00;99.90;;;;;;4955937;29;20272;-83
2021/12/05 07:51:07;;;;;;;0.35;0.35;;;2.10;99.90;;;;;;4937377;29;20040;-83
2021/12/05 07:53:45;;;;;;;0.50;0.50;;;2.10;99.90;;;;;;4937919;29;20020;-82
2021/12/05 07:56:18;;;;;;;5.20;3.25;;;2.10;99.90;;;;;;4936214;29;20027;-82
2021/12/05 08:17:52;;;;;;;0.77;0.50;;;2.60;99.90;;;;;;4940485;29;20043;-83
2021/12/05 08:20:23;;;;;;;2.97;1.00;;;2.70;99.90;;;;;;4919073;29;20040;-82
2021/12/05 08:22:49;;;;;;;1.65;0.55;;;2.90;99.90;;;;;;4931110;29;20028;-82
2021/12/05 08:25:16;;;;;;;0.70;0.70;;;3.00;99.90;;;;;;4929101;29;20039;-82
2021/12/05 08:27:47;;;;;;;0.50;0.47;;;3.10;99.90;;;;;;4930487;29;20117;-82
2021/12/05 08:30:22;;;;;;;5.32;0.35;;;3.30;99.90;;;;;;4938285;29;20031;-80
2021/12/05 10:12:57;;;;;;;4.00;0.20;;;5.10;99.90;;;;;;4930286;29;20032;-82
2021/12/05 10:36:01;;;;;;;0.10;0.10;;;5.30;99.90;;;;;;4900891;29;20039;-80
2021/12/05 10:38:00;;;;;;;0.80;0.73;;;5.30;99.90;;;;;;4886068;29;20043;-80
2021/12/05 10:40:55;;;;;;;7.18;0.57;;;5.60;99.90;;;;;;4885138;29;20039;-79
2021/12/05 10:43:25;;;;;;;2.25;0.30;;;5.70;99.90;;;;;;4884919;29;20046;-81
2021/12/05 10:46:10;;;;;;;0.10;0.10;;;6.00;99.90;;;;;;4912403;29;20033;-80
2021/12/05 10:48:46;;;;;;;0.52;0.40;;;6.20;99.90;;;;;;4885848;29;20084;-82
2021/12/05 10:51:16;;;;;;;0.40;0.40;;;6.30;99.90;;;;;;4891002;29;20057;-80
2021/12/05 10:53:46;;;;;;;0.30;0.30;;;6.10;99.90;;;;;;4904306;29;20115;-79
2021/12/05 10:56:23;;;;;;;0.63;0.13;;;5.90;99.90;;;;;;4882167;29;20043;-79
2021/12/05 10:59:03;;;;;;;4.50;1.08;;;5.80;99.90;;;;;;4898349;29;20033;-78
2021/12/05 11:01:48;;;;;;;1.55;0.68;;;5.70;99.90;;;;;;4900893;29;20068;-78
2021/12/05 11:04:26;;;;;;;0.98;0.52;;;5.60;99.90;;;;;;4885703;29;20581;-79
2021/12/05 11:06:58;;;;;;;2.08;1.08;;;5.70;99.90;;;;;;4889083;29;20468;-79
2021/12/05 11:09:30;;;;;;;0.35;0.35;;;5.60;99.90;;;;;;4914886;29;20025;-79
2021/12/05 11:12:02;;;;;;;2.20;0.30;;;5.50;99.90;;;;;;4921635;29;20032;-80
2021/12/05 11:14:35;;;;;;;0.40;0.40;;;5.30;99.90;;;;;;4929310;29;20724;-79
2021/12/05 11:17:02;;;;;;;0.70;0.50;;;5.10;99.90;;;;;;4909602;29;20032;-79
2021/12/05 11:19:39;;;;;;;2.80;1.13;;;5.00;99.90;;;;;;4923978;29;20028;-80
2021/12/05 11:22:36;;;;;;;6.65;1.65;;;5.10;99.90;;;;;;4926626;29;20024;-79
2021/12/05 11:25:02;;;;;;;0.73;0.65;;;5.30;99.90;;;;;;4894512;29;20037;-80
2021/12/05 11:27:39;;;;;;;0.68;0.68;;;5.30;99.90;;;;;;4928223;29;20496;-80
2021/12/05 11:30:13;;;;;;;6.68;1.50;;;5.30;99.90;;;;;;4911133;29;20031;-80
2021/12/05 11:32:59;;;;;;;3.45;2.28;;;5.40;99.90;;;;;;4927896;29;20043;-80
2021/12/05 11:35:53;;;;;;;4.85;3.72;;;5.20;99.90;;;;;;4912127;29;20043;-80
2021/12/05 11:38:30;;;;;;;0.30;0.30;;;5.20;99.90;;;;;;4916520;29;20040;-81
2021/12/05 11:41:11;;;;;;;0.68;0.68;;;5.40;99.90;;;;;;4926312;29;20024;-80
2021/12/05 11:43:36;;;;;;;0.20;0.20;;;5.70;99.90;;;;;;4907040;29;20024;-80
2021/12/05 11:46:04;;;;;;;0.68;0.50;;;6.00;99.90;;;;;;4925410;29;20131;-81
2021/12/05 11:48:32;;;;;;;0.22;0.22;;;5.90;99.90;;;;;;4908702;29;20028;-81
2021/12/05 11:51:00;;;;;;;1.10;0.40;;;6.00;99.90;;;;;;4932372;29;20032;-81
2021/12/05 11:53:45;;;;;;;0.40;0.32;;;6.10;99.90;;;;;;4912616;29;20032;-81
2021/12/05 11:56:21;;;;;;;0.55;0.43;;;6.10;99.90;;;;;;4910548;29;20061;-80
2021/12/05 11:59:14;;;;;;;0.28;0.28;;;6.30;99.90;;;;;;4912905;29;20028;-81
2021/12/05 12:01:55;;;;;;;0.10;0.10;;;6.60;99.90;;;;;;4927347;29;20040;-79
2021/12/05 12:04:24;;;;;;;1.90;0.40;;;6.90;99.90;;;;;;4909522;29;20064;-81
2021/12/05 12:07:23;;;;;;;0.10;0.10;;;6.70;99.90;;;;;;4928749;29;20028;-80
2021/12/05 12:09:55;;;;;;;1.13;0.20;;;6.70;99.90;;;;;;4911909;29;20032;-79
2021/12/05 12:12:21;;;;;;;2.60;0.50;;;6.30;99.90;;;;;;4909269;29;20420;-80
2021/12/05 12:14:47;;;;;;;0.68;0.40;;;5.80;99.90;;;;;;4913521;29;20491;-80
2021/12/05 12:17:16;;;;;;;3.30;0.20;;;5.40;99.90;;;;;;4887805;29;20023;-81
2021/12/05 12:19:54;;;;;;;0.63;0.63;;;5.00;99.90;;;;;;4886352;29;20432;-80
2021/12/05 12:22:23;;;;;;;2.25;0.25;;;4.50;99.90;;;;;;4917196;29;20028;-79
2021/12/05 12:24:55;;;;;;;6.13;0.20;;;4.40;99.90;;;;;;4902248;29;20039;-80
2021/12/05 12:27:22;;;;;;;0.40;0.40;;;4.50;99.90;;;;;;4891466;29;20053;-80
2021/12/05 12:29:52;;;;;;;0.40;0.40;;;4.60;99.90;;;;;;4894848;29;20075;-80
2021/12/05 12:32:28;;;;;;;3.80;0.60;;;4.80;99.90;;;;;;4897297;29;20021;-80
2021/12/05 12:35:14;;;;;;;0.60;0.60;;;4.70;99.90;;;;;;4883696;29;20033;-80
2021/12/05 12:38:14;;;;;;;1.38;0.73;;;4.70;99.90;;;;;;4884799;29;20036;-80
2021/12/05 12:40:47;;;;;;;0.40;0.40;;;4.70;99.90;;;;;;4877603;29;20041;-80
2021/12/05 12:43:47;;;;;;;0.30;0.30;;;4.90;99.90;;;;;;4886461;29;20048;-81
2021/12/05 12:46:28;;;;;;;3.40;0.30;;;5.00;99.90;;;;;;4884525;29;20048;-81
2021/12/05 12:49:16;;;;;;;2.85;0.28;;;6.50;99.90;;;;;;4886862;29;20044;-81
2021/12/05 12:51:59;;;;;;;0.13;0.13;;;4.80;99.90;;;;;;4889797;29;20040;-81
2021/12/05 12:54:28;;;;;;;0.50;0.50;;;4.80;99.90;;;;;;4888107;29;20451;-81
2021/12/05 12:57:23;;;;;;;1.13;0.40;;;4.90;99.90;;;;;;4893171;29;20124;-80
2021/12/05 13:00:00;;;;;;;0.30;0.30;;;4.80;99.90;;;;;;4877801;29;20083;-78
2021/12/05 13:05:52;;;;;;;;;;;4.90;99.90;;;;;;4897568;29;20040;-79
2021/12/05 13:11:22;;;;;;;0.57;0.35;;;4.90;99.90;;;;;;4898612;29;20042;-79
2021/12/05 13:14:04;;;;;;;2.15;0.20;;;5.00;99.90;;;;;;4898594;29;20021;-81
2021/12/05 13:16:34;;;;;;;0.40;0.40;;;4.80;99.90;;;;;;4880826;29;20509;-79
2021/12/05 13:19:22;;;;;;;1.33;0.63;;;4.60;99.90;;;;;;4879450;29;20107;-80
2021/12/05 13:21:52;;;;;;;0.20;0.20;;;4.50;99.90;;;;;;4900778;29;20035;-78
2021/12/05 13:24:26;;;;;;;;;;;4.40;99.90;;;;;;4886492;29;20047;-78
2021/12/05 13:27:03;;;;;;;0.10;0.10;;;4.30;99.90;;;;;;4886129;29;19908;-79
2021/12/05 13:29:32;;;;;;;3.50;0.17;;;4.30;99.90;;;;;;4907425;29;20025;-79
2021/12/05 13:32:03;;;;;;;0.20;0.10;;;4.30;99.90;;;;;;4913058;29;20036;-79
2021/12/05 13:34:40;;;;;;;0.30;0.30;;;4.20;99.90;;;;;;4908220;29;20024;-77
2021/12/05 13:37:06;;;;;;;3.05;0.25;;;4.20;99.90;;;;;;4908220;29;20047;-77
2021/12/05 13:39:37;;;;;;;1.67;0.50;;;4.30;99.90;;;;;;4902104;29;20024;-79
2021/12/05 13:42:34;;;;;;;0.85;0.20;;;4.40;99.90;;;;;;4900515;29;20025;-80
2021/12/05 13:44:59;;;;;;;0.20;0.20;;;4.50;99.90;;;;;;4879535;29;20072;-79
2021/12/05 13:47:44;;;;;;;1.45;0.50;;;4.60;99.90;;;;;;4892017;29;20029;-78
2021/12/05 13:50:17;;;;;;;0.43;0.35;;;4.50;99.90;;;;;;4889941;29;20025;-78
2021/12/05 13:53:02;;;;;;;7.03;1.58;;;4.70;99.90;;;;;;4893774;29;20025;-79
2021/12/05 13:55:46;;;;;;;0.40;0.40;;;4.80;99.90;;;;;;4897568;29;20164;-80
2021/12/05 13:58:28;;;;;;;2.03;0.60;;;4.70;99.90;;;;;;4867163;29;20040;-79
2021/12/05 14:01:12;;;;;;;1.02;0.20;;;4.80;99.90;;;;;;4901865;29;20124;-80
2021/12/05 14:03:41;;;;;;;0.20;0.20;;;4.70;99.90;;;;;;4922333;29;20077;-84
2021/12/05 14:07:01;;;;;;;1.60;0.50;;;4.60;99.90;;;;;;4910955;29;20449;-80
2021/12/05 14:09:33;;;;;;;0.60;0.60;;;4.60;99.90;;;;;;4854789;29;20036;-79
2021/12/05 14:12:17;;;;;;;0.38;0.38;;;4.40;99.90;;;;;;4889761;29;20139;-82
2021/12/05 14:14:55;;;;;;;0.60;0.60;;;4.40;99.90;;;;;;4895305;23;20082;-76
2021/12/05 14:17:27;;;;;;;0.80;0.40;;;4.40;99.90;;;;;;5111721;23;20071;-81
2021/12/05 14:22:31;;;;;;;5.93;0.40;;;4.40;99.90;;;;;;5008360;23;20067;-80
2021/12/05 14:25:10;;;;;;;0.30;0.30;;;4.40;99.90;;;;;;5090766;23;20051;-83
2021/12/05 14:30:18;;;;;;;1.27;0.50;;;4.30;99.90;;;;;;5495763;23;20042;-78
2021/12/05 14:32:45;;;;;;;0.20;0.20;;;4.30;99.90;;;;;;4925325;28;20123;-79
2021/12/05 14:35:14;;;;;;;0.13;0.13;;;4.30;99.90;;;;;;4917498;29;20063;-80
2021/12/05 14:37:43;;;;;;;0.75;0.52;;;4.30;99.90;;;;;;4903468;29;20036;-78
2021/12/05 14:40:15;;;;;;;1.73;1.02;;;4.20;99.90;;;;;;4913520;29;20032;-77
2021/12/05 14:42:48;;;;;;;0.60;0.57;;;4.10;99.90;;;;;;4899936;29;20028;-80
2021/12/05 14:45:27;;;;;;;0.22;0.22;;;4.00;99.90;;;;;;4897242;29;20068;-79
2021/12/05 14:47:55;;;;;;;0.20;0.20;;;3.90;99.90;;;;;;4910113;29;20473;-80
2021/12/05 14:50:33;;;;;;;0.10;0.10;;;3.80;99.90;;;;;;4897867;29;20052;-80
2021/12/05 14:53:03;;;;;;;0.30;0.28;;;3.70;99.90;;;;;;4907049;29;20395;-81
2021/12/05 14:55:31;;;;;;;0.17;0.17;;;3.50;99.90;;;;;;4927800;29;20035;-77
2021/12/05 14:58:01;;;;;;;0.10;0.10;;;3.40;99.90;;;;;;4934994;29;20102;-82
2021/12/05 15:00:33;;;;;;;0.20;0.20;;;3.20;99.90;;;;;;4897201;29;20024;-77
2021/12/05 15:03:18;;;;;;;0.20;0.20;;;3.00;99.90;;;;;;4897384;29;20043;-75
2021/12/05 15:05:47;;;;;;;0.22;0.22;;;3.00;99.90;;;;;;4895729;29;20124;-78
2021/12/05 15:08:16;;;;;;;1.17;0.32;;;3.00;99.90;;;;;;4903320;29;20037;-78
2021/12/05 15:10:43;;;;;;;0.03;0.03;;;3.10;99.90;;;;;;4898951;29;20044;-78
2021/12/05 15:13:11;;;;;;;0.40;0.40;;;3.00;99.90;;;;;;4896672;29;20052;-78
2021/12/05 15:15:37;;;;;;;0.10;0.10;;;3.00;99.90;;;;;;4896721;29;20064;-79
2021/12/05 15:18:04;;;;;;;0.30;0.30;;;2.90;99.90;;;;;;4894256;29;20063;-78
2021/12/05 15:20:33;;;;;;;0.65;0.30;;;2.80;99.90;;;;;;4897528;29;20040;-79
2021/12/05 15:23:05;;;;;;;1.08;0.57;;;2.70;99.90;;;;;;4878888;29;20485;-78
2021/12/05 15:25:33;;;;;;;0.55;0.30;;;2.70;99.90;;;;;;4894179;29;20082;-78
2021/12/05 15:27:59;;;;;;;0.68;0.68;;;2.60;99.90;;;;;;4896689;29;20021;-79
2021/12/05 15:30:48;;;;;;;0.30;0.30;;;2.60;99.90;;;;;;4895410;29;20039;-79
2021/12/05 15:33:17;;;;;;;0.40;0.40;;;2.50;99.90;;;;;;4891653;29;20040;-79
2021/12/05 15:35:43;;;;;;;0.13;0.13;;;2.50;99.90;;;;;;4893053;29;20431;-78
2021/12/05 15:38:23;;;;;;;0.20;0.20;;;2.40;99.90;;;;;;4894411;29;20487;-78
2021/12/05 15:40:50;;;;;;;;;;;2.40;99.90;;;;;;4892660;29;20036;-78
2021/12/05 15:43:19;;;;;;;0.10;0.10;;;2.40;99.90;;;;;;4892528;29;19919;-78
2021/12/05 15:45:47;;;;;;;0.30;0.30;;;2.30;99.90;;;;;;4894749;29;20076;-79
2021/12/05 15:48:23;;;;;;;1.85;1.75;;;2.20;99.90;;;;;;4894364;29;20028;-78
2021/12/05 15:50:52;;;;;;;2.47;1.00;;;2.20;99.90;;;;;;4894478;29;20029;-78
2021/12/05 15:53:20;;;;;;;0.50;0.50;;;2.10;99.90;;;;;;4894068;29;20028;-78
2021/12/05 15:55:50;;;;;;;4.45;0.60;;;2.10;99.90;;;;;;4893984;29;20033;-78
2021/12/05 15:58:45;;;;;;;0.75;0.75;;;2.10;99.90;;;;;;4893475;29;20128;-79
2021/12/05 16:01:18;;;;;;;2.15;0.90;;;2.10;99.90;;;;;;4895500;29;20033;-79
2021/12/05 16:03:50;;;;;;;1.25;0.95;;;2.10;99.90;;;;;;4894504;29;20024;-78
2021/12/05 16:06:18;;;;;;;0.28;0.25;;;2.10;99.90;;;;;;4894716;29;20040;-78
2021/12/05 16:08:49;;;;;;;0.47;0.47;;;2.10;99.90;;;;;;4894577;29;20024;-78
2021/12/05 16:11:18;;;;;;;3.20;0.90;;;2.10;99.90;;;;;;4894275;29;20202;-78
2021/12/05 16:13:46;;;;;;;0.57;0.57;;;2.00;99.90;;;;;;4895432;29;20131;-79
2021/12/05 16:16:17;;;;;;;0.57;0.52;;;2.00;99.90;;;;;;4895186;29;20029;-79
2021/12/05 16:18:46;;;;;;;1.52;1.40;;;2.00;99.90;;;;;;4894013;29;20508;-79
2021/12/05 16:21:27;;;;;;;1.27;1.17;;;2.00;99.90;;;;;;4878184;29;20057;-79
2021/12/05 16:24:03;;;;;;;1.38;1.23;;;2.00;99.90;;;;;;4894818;29;20028;-78
2021/12/05 16:26:29;;;;;;;0.40;0.40;;;1.90;99.90;;;;;;4906646;29;20036;-79
2021/12/05 16:28:57;;;;;;;0.90;0.75;;;2.00;99.90;;;;;;4916101;29;20019;-78
2021/12/05 16:31:36;;;;;;;1.30;0.50;;;1.90;99.90;;;;;;4931011;29;20047;-79
2021/12/05 16:34:07;;;;;;;0.60;0.57;;;1.90;99.90;;;;;;4931457;29;20030;-78
2021/12/05 16:36:41;;;;;;;2.17;0.68;;;2.00;99.90;;;;;;4949178;29;20035;-78
2021/12/05 16:39:11;;;;;;;0.28;0.28;;;2.00;99.90;;;;;;4933066;29;20063;-79
2021/12/05 16:41:46;;;;;;;0.30;0.30;;;2.20;99.90;;;;;;4915220;29;20391;-78
2021/12/05 16:44:19;;;;;;;0.15;0.15;;;2.20;99.90;;;;;;4931562;29;20091;-78
2021/12/05 16:46:57;;;;;;;0.25;0.17;;;2.40;99.90;;;;;;4947626;29;20384;-78
2021/12/05 16:49:34;;;;;;;0.45;0.45;;;2.40;99.90;;;;;;4933020;29;20491;-79
2021/12/05 16:52:15;;;;;;;3.45;2.63;;;2.30;99.90;;;;;;4931768;29;20126;-78
2021/12/05 16:54:53;;;;;;;0.32;0.32;;;2.20;99.90;;;;;;4922043;29;20033;-78
2021/12/05 16:57:32;;;;;;;1.13;0.68;;;2.20;99.90;;;;;;4922450;29;20063;-78
2021/12/05 17:00:09;;;;;;;1.85;1.13;;;2.10;99.90;;;;;;4907314;29;20421;-81
2021/12/05 17:02:44;;;;;;;0.10;0.10;;;2.00;99.90;;;;;;4894323;29;20033;-78
2021/12/05 17:05:34;;;;;;;1.95;0.77;;;2.00;99.90;;;;;;4908032;29;20028;-78
2021/12/05 17:08:10;;;;;;;1.55;0.63;;;1.90;99.90;;;;;;4906891;29;20031;-78
2021/12/05 17:10:40;;;;;;;1.95;0.88;;;1.90;99.90;;;;;;4924151;29;20089;-78
2021/12/05 17:13:16;;;;;;;1.25;0.75;;;1.90;99.90;;;;;;4908689;29;20024;-78
2021/12/05 17:15:50;;;;;;;1.23;0.50;;;1.90;99.90;;;;;;4876752;29;20549;-78
2021/12/05 17:18:20;;;;;;;0.80;0.80;;;1.80;99.90;;;;;;4908923;29;20063;-78
2021/12/05 17:20:50;;;;;;;0.30;0.30;;;1.80;99.90;;;;;;4895217;29;20029;-78
2021/12/05 17:23:27;;;;;;;0.40;0.40;;;1.70;99.90;;;;;;4895700;29;20028;-78
2021/12/05 17:26:05;;;;;;;0.70;0.70;;;1.60;99.90;;;;;;4896958;29;20052;-78
2021/12/05 17:29:02;;;;;;;0.50;0.38;;;1.50;99.90;;;;;;4933580;29;20480;-78
2021/12/05 17:31:35;;;;;;;0.20;0.20;;;2.30;99.90;;;;;;4907793;29;20079;-79
2021/12/05 17:34:05;;;;;;;9.70;4.60;;;1.20;99.90;;;;;;4931629;29;20031;-79
2021/12/05 17:36:40;;;;;;;0.70;0.70;;;1.50;99.90;;;;;;4931394;29;20385;-79
2021/12/05 17:39:19;;;;;;;0.63;0.63;;;1.40;99.90;;;;;;4931051;29;20049;-78
2021/12/05 17:41:48;;;;;;;0.20;0.20;;;1.10;99.90;;;;;;4932108;29;20024;-78
2021/12/05 17:44:17;;;;;;;0.20;0.20;;;1.00;99.90;;;;;;4931566;29;20040;-78
2021/12/05 17:46:45;;;;;;;0.80;0.73;;;0.90;99.90;;;;;;4947532;29;20035;-78
2021/12/05 17:49:14;;;;;;;0.88;0.88;;;0.70;99.90;;;;;;4934324;29;20064;-79
2021/12/05 17:51:42;;;;;;;0.40;0.40;;;0.50;99.90;;;;;;4933111;29;20059;-79
2021/12/05 17:54:11;;;;;;;1.40;1.30;;;0.50;99.90;;;;;;4932128;29;20039;-79
2021/12/05 17:56:48;;;;;;;0.75;0.63;;;0.40;99.90;;;;;;4947865;29;20123;-79
2021/12/05 18:04:39;;;;;;;0.45;0.45;;;0.20;99.90;;;;;;4932659;29;20499;-79
2021/12/05 18:07:05;;;;;;;0.47;0.47;;;0.40;99.90;;;;;;4930243;29;20153;-79
2021/12/05 18:09:31;;;;;;;1.08;1.08;;;0.50;99.90;;;;;;4931528;29;20028;-78
2021/12/05 18:11:56;;;;;;;1.92;1.75;;;0.40;99.90;;;;;;4930636;29;20024;-79
2021/12/05 18:14:22;;;;;;;0.93;0.85;;;0.20;99.90;;;;;;4913886;29;20061;-78
2021/12/05 18:16:52;;;;;;;0.50;0.50;;;0.20;99.90;;;;;;4931141;29;20392;-77
2021/12/05 18:19:19;;;;;;;1.05;0.90;;;0.10;99.90;;;;;;4913452;29;20079;-78
2021/12/05 18:21:48;;;;;;;1.02;0.60;;;0.10;99.90;;;;;;4931350;29;20083;-79
2021/12/05 18:24:16;;;;;;;1.17;0.77;;;0.00;99.90;;;;;;4929841;29;20028;-78
2021/12/05 18:26:43;;;;;;;1.15;1.05;;;-0.10;99.90;;;;;;4922594;29;20163;-78
2021/12/05 18:29:12;;;;;;;2.60;0.95;;;0.20;99.90;;;;;;4913073;29;20024;-79
2021/12/05 18:31:38;;;;;;;1.65;1.33;;;0.00;99.90;;;;;;4910586;29;20055;-78
2021/12/05 18:34:19;;;;;;;1.08;0.98;;;-0.20;99.90;;;;;;4911017;29;20091;-78
2021/12/05 18:36:47;;;;;;;2.45;1.15;;;-0.20;99.90;;;;;;4914091;29;20032;-78
2021/12/05 18:39:20;;;;;;;3.03;1.30;;;-0.20;99.90;;;;;;4914832;29;20501;-79
2021/12/05 18:41:45;;;;;;;1.30;1.20;;;-0.20;99.90;;;;;;4913153;29;20115;-78
2021/12/05 18:44:17;;;;;;;3.40;1.75;;;-0.20;99.90;;;;;;4914874;29;20119;-79
2021/12/05 18:46:44;;;;;;;4.60;3.33;;;0.00;99.90;;;;;;4915011;29;20035;-79
2021/12/05 18:49:10;;;;;;;1.40;1.08;;;1.00;99.90;;;;;;4912799;29;20131;-78
2021/12/05 18:51:36;;;;;;;4.60;1.90;;;0.00;99.90;;;;;;4913083;29;20260;-79
2021/12/05 18:54:02;;;;;;;0.90;0.57;;;-0.10;99.90;;;;;;4907496;29;20197;-78
2021/12/05 18:56:29;;;;;;;1.75;1.65;;;0.50;99.90;;;;;;4877812;29;20076;-78